sensor_id;sensor_type;location;lat;lon;timestamp;pressure;altitude;pressure_sealevel;temperature;humidity
6565;BME280;3316;44.118;27.258;2023-02-04T00:01:48;100910.84;;;2.86;100.00
6565;BME280;3316;44.118;27.258;2023-02-04T00:04:14;100903.03;;;2.84;100.00
6565;BME280;3316;44.118;27.258;2023-02-04T00:06:39;100901.34;;;2.86;100.00
6565;BME280;3316;44.118;27.258;2023-02-04T00:09:05;100909.50;;;3.01;100.00
6565;BME280;3316;44.118;27.258;2023-02-04T00:11:31;100894.94;;;3.08;100.00
6565;BME280;3316;44.118;27.258;2023-02-04T00:13:56;100910.78;;;3.18;100.00
6565;BME280;3316;44.118;27.258;2023-02-04T00:16:21;100917.00;;;3.23;100.00
6565;BME280;3316;44.118;27.258;2023-02-04T00:18:47;100885.53;;;3.13;100.00
6565;BME280;3316;44.118;27.258;2023-02-04T00:21:12;100894.59;;;3.30;100.00
6565;BME280;3316;44.118;27.258;2023-02-04T00:23:38;100883.22;;;3.25;100.00
6565;BME280;3316;44.118;27.258;2023-02-04T00:26:03;100882.41;;;3.27;100.00
6565;BME280;3316;44.118;27.258;2023-02-04T00:28:29;100879.72;;;3.24;100.00
6565;BME280;3316;44.118;27.258;2023-02-04T00:30:54;100800.78;;;2.82;100.00
6565;BME280;3316;44.118;27.258;2023-02-04T00:33:20;100871.44;;;3.40;100.00
6565;BME280;3316;44.118;27.258;2023-02-04T00:35:45;100864.47;;;3.39;100.00
6565;BME280;3316;44.118;27.258;2023-02-04T00:38:11;100873.41;;;3.50;100.00
6565;BME280;3316;44.118;27.258;2023-02-04T00:40:36;100864.19;;;3.66;100.00
6565;BME280;3316;44.118;27.258;2023-02-04T00:43:02;100866.81;;;3.68;100.00
6565;BME280;3316;44.118;27.258;2023-02-04T00:45:27;100868.53;;;3.67;100.00
6565;BME280;3316;44.118;27.258;2023-02-04T00:47:53;100848.56;;;3.65;100.00
6565;BME280;3316;44.118;27.258;2023-02-04T00:50:18;100851.22;;;3.68;100.00
6565;BME280;3316;44.118;27.258;2023-02-04T00:52:44;100838.88;;;3.59;100.00
6565;BME280;3316;44.118;27.258;2023-02-04T00:55:09;100836.19;;;3.53;100.00
6565;BME280;3316;44.118;27.258;2023-02-04T00:57:37;100832.66;;;3.51;100.00
6565;BME280;3316;44.118;27.258;2023-02-04T01:00:04;100844.81;;;3.52;100.00
6565;BME280;3316;44.118;27.258;2023-02-04T01:02:29;100809.78;;;3.35;100.00
6565;BME280;3316;44.118;27.258;2023-02-04T01:04:55;100835.94;;;3.42;100.00
6565;BME280;3316;44.118;27.258;2023-02-04T01:07:20;100833.19;;;3.36;100.00
6565;BME280;3316;44.118;27.258;2023-02-04T01:09:46;100841.66;;;3.28;100.00
6565;BME280;3316;44.118;27.258;2023-02-04T01:12:11;100800.50;;;3.07;100.00
6565;BME280;3316;44.118;27.258;2023-02-04T01:14:36;100836.38;;;3.23;100.00
6565;BME280;3316;44.118;27.258;2023-02-04T01:17:02;100830.31;;;3.23;100.00
6565;BME280;3316;44.118;27.258;2023-02-04T01:19:27;100815.34;;;3.13;100.00
6565;BME280;3316;44.118;27.258;2023-02-04T01:21:53;100822.47;;;3.21;100.00
6565;BME280;3316;44.118;27.258;2023-02-04T01:24:18;100796.34;;;3.15;100.00
6565;BME280;3316;44.118;27.258;2023-02-04T01:26:43;100798.06;;;3.16;100.00
6565;BME280;3316;44.118;27.258;2023-02-04T01:29:09;100805.19;;;3.23;100.00
6565;BME280;3316;44.118;27.258;2023-02-04T01:31:35;100805.22;;;3.25;100.00
6565;BME280;3316;44.118;27.258;2023-02-04T01:34:00;100791.47;;;3.30;100.00
6565;BME280;3316;44.118;27.258;2023-02-04T01:36:26;100788.16;;;3.37;100.00
6565;BME280;3316;44.118;27.258;2023-02-04T01:38:52;100768.97;;;3.32;100.00
6565;BME280;3316;44.118;27.258;2023-02-04T01:41:17;100768.22;;;3.38;100.00
6565;BME280;3316;44.118;27.258;2023-02-04T01:43:44;100754.25;;;3.33;100.00
6565;BME280;3316;44.118;27.258;2023-02-04T01:46:10;100756.97;;;3.37;100.00
6565;BME280;3316;44.118;27.258;2023-02-04T01:48:35;100749.06;;;3.34;100.00
6565;BME280;3316;44.118;27.258;2023-02-04T01:51:05;100734.25;;;3.30;100.00
6565;BME280;3316;44.118;27.258;2023-02-04T01:53:32;100744.94;;;3.45;100.00
6565;BME280;3316;44.118;27.258;2023-02-04T01:55:58;100742.31;;;3.42;100.00
6565;BME280;3316;44.118;27.258;2023-02-04T01:58:23;100731.22;;;3.51;100.00
6565;BME280;3316;44.118;27.258;2023-02-04T02:00:49;100736.44;;;3.52;100.00
6565;BME280;3316;44.118;27.258;2023-02-04T02:03:15;100746.69;;;3.45;100.00
6565;BME280;3316;44.118;27.258;2023-02-04T02:05:44;100745.97;;;3.52;100.00
6565;BME280;3316;44.118;27.258;2023-02-04T02:08:11;100747.53;;;3.44;100.00
6565;BME280;3316;44.118;27.258;2023-02-04T02:10:40;100746.66;;;3.43;100.00
6565;BME280;3316;44.118;27.258;2023-02-04T02:13:09;100731.03;;;3.42;100.00
6565;BME280;3316;44.118;27.258;2023-02-04T02:15:34;100736.25;;;3.43;100.00
6565;BME280;3316;44.118;27.258;2023-02-04T02:18:00;100730.19;;;3.43;100.00
6565;BME280;3316;44.118;27.258;2023-02-04T02:20:26;100717.81;;;3.31;100.00
6565;BME280;3316;44.118;27.258;2023-02-04T02:25:40;100722.25;;;3.35;100.00
6565;BME280;3316;44.118;27.258;2023-02-04T02:28:11;100706.44;;;3.28;100.00
6565;BME280;3316;44.118;27.258;2023-02-04T02:30:37;100712.38;;;3.21;100.00
6565;BME280;3316;44.118;27.258;2023-02-04T02:33:03;100716.75;;;3.22;100.00
6565;BME280;3316;44.118;27.258;2023-02-04T02:35:30;100689.75;;;3.15;100.00
6565;BME280;3316;44.118;27.258;2023-02-04T02:37:55;100708.88;;;3.19;100.00
6565;BME280;3316;44.118;27.258;2023-02-04T02:40:21;100697.59;;;3.18;100.00
6565;BME280;3316;44.118;27.258;2023-02-04T02:42:48;100702.84;;;3.20;100.00
6565;BME280;3316;44.118;27.258;2023-02-04T02:45:24;100673.84;;;3.00;100.00
6565;BME280;3316;44.118;27.258;2023-02-04T02:47:50;100682.59;;;3.04;100.00
6565;BME280;3316;44.118;27.258;2023-02-04T02:50:19;100671.94;;;2.92;100.00
6565;BME280;3316;44.118;27.258;2023-02-04T02:52:45;100674.56;;;2.95;100.00
6565;BME280;3316;44.118;27.258;2023-02-04T02:55:17;100675.19;;;2.82;100.00
6565;BME280;3316;44.118;27.258;2023-02-04T02:57:44;100618.84;;;2.40;100.00
6565;BME280;3316;44.118;27.258;2023-02-04T03:02:52;100643.97;;;2.40;100.00
6565;BME280;3316;44.118;27.258;2023-02-04T03:05:18;100647.38;;;2.37;100.00
6565;BME280;3316;44.118;27.258;2023-02-04T03:07:44;100613.28;;;2.22;100.00
6565;BME280;3316;44.118;27.258;2023-02-04T03:10:10;100645.59;;;2.36;100.00
6565;BME280;3316;44.118;27.258;2023-02-04T03:12:35;100636.84;;;2.31;100.00
6565;BME280;3316;44.118;27.258;2023-02-04T03:15:02;100627.28;;;2.30;100.00
6565;BME280;3316;44.118;27.258;2023-02-04T03:17:28;100615.00;;;2.23;100.00
6565;BME280;3316;44.118;27.258;2023-02-04T03:19:54;100608.75;;;2.14;100.00
6565;BME280;3316;44.118;27.258;2023-02-04T03:22:20;100603.44;;;2.09;100.00
6565;BME280;3316;44.118;27.258;2023-02-04T03:24:45;100588.72;;;2.08;100.00
6565;BME280;3316;44.118;27.258;2023-02-04T03:27:13;100597.41;;;2.10;100.00
6565;BME280;3316;44.118;27.258;2023-02-04T03:29:43;100595.56;;;2.05;100.00
6565;BME280;3316;44.118;27.258;2023-02-04T03:32:09;100586.94;;;2.07;100.00
6565;BME280;3316;44.118;27.258;2023-02-04T03:34:34;100585.38;;;2.14;100.00
6565;BME280;3316;44.118;27.258;2023-02-04T03:37:00;100583.69;;;2.14;100.00
6565;BME280;3316;44.118;27.258;2023-02-04T03:39:25;100581.00;;;2.13;100.00
6565;BME280;3316;44.118;27.258;2023-02-04T03:41:50;100570.72;;;2.16;100.00
6565;BME280;3316;44.118;27.258;2023-02-04T03:44:16;100562.81;;;2.11;100.00
6565;BME280;3316;44.118;27.258;2023-02-04T03:46:42;100551.53;;;2.09;100.00
6565;BME280;3316;44.118;27.258;2023-02-04T03:49:08;100563.75;;;2.13;100.00
6565;BME280;3316;44.118;27.258;2023-02-04T03:51:33;100562.16;;;2.20;100.00
6565;BME280;3316;44.118;27.258;2023-02-04T03:53:59;100555.31;;;2.23;100.00
6565;BME280;3316;44.118;27.258;2023-02-04T03:56:24;100543.97;;;2.18;100.00
6565;BME280;3316;44.118;27.258;2023-02-04T03:58:50;100538.91;;;2.24;100.00
6565;BME280;3316;44.118;27.258;2023-02-04T04:01:15;100524.13;;;2.20;100.00
6565;BME280;3316;44.118;27.258;2023-02-04T04:03:40;100526.88;;;2.28;100.00
6565;BME280;3316;44.118;27.258;2023-02-04T04:06:06;100517.16;;;2.19;100.00
6565;BME280;3316;44.118;27.258;2023-02-04T04:08:34;100526.91;;;2.29;100.00
6565;BME280;3316;44.118;27.258;2023-02-04T04:10:59;100527.00;;;2.34;100.00
6565;BME280;3316;44.118;27.258;2023-02-04T04:13:25;100515.78;;;2.36;100.00
6565;BME280;3316;44.118;27.258;2023-02-04T04:15:50;100513.16;;;2.35;100.00
6565;BME280;3316;44.118;27.258;2023-02-04T04:18:16;100509.75;;;2.37;100.00
6565;BME280;3316;44.118;27.258;2023-02-04T04:20:41;100508.84;;;2.34;100.00
6565;BME280;3316;44.118;27.258;2023-02-04T04:23:07;100510.78;;;2.45;100.00
6565;BME280;3316;44.118;27.258;2023-02-04T04:25:32;100512.63;;;2.51;100.00
6565;BME280;3316;44.118;27.258;2023-02-04T04:27:58;100502.13;;;2.46;100.00
6565;BME280;3316;44.118;27.258;2023-02-04T04:30:23;100506.81;;;2.64;100.00
6565;BME280;3316;44.118;27.258;2023-02-04T04:32:48;100513.69;;;2.60;100.00
6565;BME280;3316;44.118;27.258;2023-02-04T04:35:14;100501.44;;;2.53;100.00
6565;BME280;3316;44.118;27.258;2023-02-04T04:37:39;100499.91;;;2.64;100.00
6565;BME280;3316;44.118;27.258;2023-02-04T04:40:05;100495.50;;;2.60;100.00
6565;BME280;3316;44.118;27.258;2023-02-04T04:42:30;100485.25;;;2.68;100.00
6565;BME280;3316;44.118;27.258;2023-02-04T04:44:56;100499.25;;;2.75;100.00
6565;BME280;3316;44.118;27.258;2023-02-04T04:47:21;100498.38;;;2.76;100.00
6565;BME280;3316;44.118;27.258;2023-02-04T04:49:47;100489.66;;;2.70;100.00
6565;BME280;3316;44.118;27.258;2023-02-04T04:52:12;100492.50;;;2.84;100.00
6565;BME280;3316;44.118;27.258;2023-02-04T04:54:38;100492.59;;;2.90;100.00
6565;BME280;3316;44.118;27.258;2023-02-04T04:57:03;100478.47;;;2.76;100.00
6565;BME280;3316;44.118;27.258;2023-02-04T04:59:28;100496.13;;;2.94;100.00
6565;BME280;3316;44.118;27.258;2023-02-04T05:01:54;100490.00;;;2.89;100.00
6565;BME280;3316;44.118;27.258;2023-02-04T05:04:19;100487.53;;;2.96;100.00
6565;BME280;3316;44.118;27.258;2023-02-04T05:06:45;100487.56;;;2.99;100.00
6565;BME280;3316;44.118;27.258;2023-02-04T05:09:10;100444.75;;;2.79;100.00
6565;BME280;3316;44.118;27.258;2023-02-04T05:11:36;100486.72;;;3.00;100.00
6565;BME280;3316;44.118;27.258;2023-02-04T05:14:01;100482.38;;;3.01;100.00
6565;BME280;3316;44.118;27.258;2023-02-04T05:16:26;100461.56;;;2.98;100.00
6565;BME280;3316;44.118;27.258;2023-02-04T05:18:52;100474.69;;;3.05;100.00
6565;BME280;3316;44.118;27.258;2023-02-04T05:21:17;100477.28;;;3.07;100.00
6565;BME280;3316;44.118;27.258;2023-02-04T05:23:43;100480.81;;;3.10;100.00
6565;BME280;3316;44.118;27.258;2023-02-04T05:26:08;100472.00;;;3.01;100.00
6565;BME280;3316;44.118;27.258;2023-02-04T05:28:34;100478.16;;;3.06;100.00
6565;BME280;3316;44.118;27.258;2023-02-04T05:30:59;100480.00;;;3.13;100.00
6565;BME280;3316;44.118;27.258;2023-02-04T05:33:25;100486.97;;;3.14;100.00
6565;BME280;3316;44.118;27.258;2023-02-04T05:35:51;100467.00;;;3.11;100.00
6565;BME280;3316;44.118;27.258;2023-02-04T05:38:16;100474.88;;;3.17;100.00
6565;BME280;3316;44.118;27.258;2023-02-04T05:40:42;100471.38;;;3.14;100.00
6565;BME280;3316;44.118;27.258;2023-02-04T05:43:07;100466.19;;;3.15;100.00
6565;BME280;3316;44.118;27.258;2023-02-04T05:45:33;100431.97;;;2.91;100.00
6565;BME280;3316;44.118;27.258;2023-02-04T05:47:58;100457.31;;;3.03;100.00
6565;BME280;3316;44.118;27.258;2023-02-04T05:50:24;100460.09;;;3.15;100.00
6565;BME280;3316;44.118;27.258;2023-02-04T05:52:49;100465.06;;;3.00;100.00
6565;BME280;3316;44.118;27.258;2023-02-04T05:55:14;100471.81;;;2.90;100.00
6565;BME280;3316;44.118;27.258;2023-02-04T05:57:40;100464.72;;;2.80;100.00
6565;BME280;3316;44.118;27.258;2023-02-04T06:00:06;100462.19;;;2.85;100.00
6565;BME280;3316;44.118;27.258;2023-02-04T06:02:32;100454.34;;;2.83;100.00
6565;BME280;3316;44.118;27.258;2023-02-04T06:04:58;100470.97;;;2.93;100.00
6565;BME280;3316;44.118;27.258;2023-02-04T06:07:24;100468.44;;;2.94;100.00
6565;BME280;3316;44.118;27.258;2023-02-04T06:09:49;100459.91;;;3.03;100.00
6565;BME280;3316;44.118;27.258;2023-02-04T06:12:14;100444.16;;;2.94;100.00
6565;BME280;3316;44.118;27.258;2023-02-04T06:14:40;100459.75;;;2.94;100.00
6565;BME280;3316;44.118;27.258;2023-02-04T06:17:05;100464.19;;;2.99;100.00
6565;BME280;3316;44.118;27.258;2023-02-04T06:19:31;100465.97;;;3.02;100.00
6565;BME280;3316;44.118;27.258;2023-02-04T06:21:56;100469.38;;;3.01;100.00
6565;BME280;3316;44.118;27.258;2023-02-04T06:24:22;100473.63;;;2.94;100.00
6565;BME280;3316;44.118;27.258;2023-02-04T06:26:47;100463.16;;;2.91;100.00
6565;BME280;3316;44.118;27.258;2023-02-04T06:29:13;100461.47;;;2.93;100.00
6565;BME280;3316;44.118;27.258;2023-02-04T06:31:38;100460.63;;;2.94;100.00
6565;BME280;3316;44.118;27.258;2023-02-04T06:34:04;100455.47;;;2.96;100.00
6565;BME280;3316;44.118;27.258;2023-02-04T06:36:30;100457.38;;;3.06;100.00
6565;BME280;3316;44.118;27.258;2023-02-04T06:38:55;100435.50;;;2.95;100.00
6565;BME280;3316;44.118;27.258;2023-02-04T06:41:22;100455.69;;;3.09;100.00
6565;BME280;3316;44.118;27.258;2023-02-04T06:43:47;100452.16;;;3.06;100.00
6565;BME280;3316;44.118;27.258;2023-02-04T06:46:12;100450.47;;;3.08;100.00
6565;BME280;3316;44.118;27.258;2023-02-04T06:48:38;100460.34;;;3.28;100.00
6565;BME280;3316;44.118;27.258;2023-02-04T06:51:03;100450.78;;;3.27;100.00
6565;BME280;3316;44.118;27.258;2023-02-04T06:53:29;100452.50;;;3.27;100.00
6565;BME280;3316;44.118;27.258;2023-02-04T06:55:54;100463.03;;;3.34;100.00
6565;BME280;3316;44.118;27.258;2023-02-04T06:58:20;100449.00;;;3.25;100.00
6565;BME280;3316;44.118;27.258;2023-02-04T07:00:45;100456.13;;;3.35;100.00
6565;BME280;3316;44.118;27.258;2023-02-04T07:03:10;100442.16;;;3.30;100.00
6565;BME280;3316;44.118;27.258;2023-02-04T07:05:36;100439.59;;;3.31;100.00
6565;BME280;3316;44.118;27.258;2023-02-04T07:08:01;100441.19;;;3.22;100.00
6565;BME280;3316;44.118;27.258;2023-02-04T07:10:27;100445.72;;;3.35;100.00
6565;BME280;3316;44.118;27.258;2023-02-04T07:12:52;100448.41;;;3.41;100.00
6565;BME280;3316;44.118;27.258;2023-02-04T07:15:18;100439.75;;;3.42;100.00
6565;BME280;3316;44.118;27.258;2023-02-04T07:17:43;100438.91;;;3.43;100.00
6565;BME280;3316;44.118;27.258;2023-02-04T07:20:10;100446.81;;;3.49;100.00
6565;BME280;3316;44.118;27.258;2023-02-04T07:22:36;100452.16;;;3.61;100.00
6565;BME280;3316;44.118;27.258;2023-02-04T07:25:02;100446.94;;;3.59;100.00
6565;BME280;3316;44.118;27.258;2023-02-04T07:27:27;100390.09;;;3.25;100.00
6565;BME280;3316;44.118;27.258;2023-02-04T07:29:53;100416.41;;;3.45;100.00
6565;BME280;3316;44.118;27.258;2023-02-04T07:32:18;100425.19;;;3.53;100.00
6565;BME280;3316;44.118;27.258;2023-02-04T07:34:44;100440.09;;;3.65;100.00
6565;BME280;3316;44.118;27.258;2023-02-04T07:37:10;100443.44;;;3.57;100.00
6565;BME280;3316;44.118;27.258;2023-02-04T07:39:35;100443.59;;;3.67;100.00
6565;BME280;3316;44.118;27.258;2023-02-04T07:42:01;100428.63;;;3.52;100.00
6565;BME280;3316;44.118;27.258;2023-02-04T07:44:26;100441.00;;;3.68;100.00
6565;BME280;3316;44.118;27.258;2023-02-04T07:46:52;100444.59;;;3.76;100.00
6565;BME280;3316;44.118;27.258;2023-02-04T07:49:17;100429.81;;;3.74;100.00
6565;BME280;3316;44.118;27.258;2023-02-04T07:51:42;100428.13;;;3.79;100.00
6565;BME280;3316;44.118;27.258;2023-02-04T07:54:08;100430.81;;;3.83;100.00
6565;BME280;3316;44.118;27.258;2023-02-04T07:56:33;100418.78;;;3.91;100.00
6565;BME280;3316;44.118;27.258;2023-02-04T07:58:59;100442.44;;;4.11;100.00
6565;BME280;3316;44.118;27.258;2023-02-04T08:01:24;100412.00;;;4.05;100.00
6565;BME280;3316;44.118;27.258;2023-02-04T08:03:50;100441.66;;;4.19;100.00
6565;BME280;3316;44.118;27.258;2023-02-04T08:06:15;100447.91;;;4.30;100.00
6565;BME280;3316;44.118;27.258;2023-02-04T08:08:41;100433.03;;;4.23;100.00
6565;BME280;3316;44.118;27.258;2023-02-04T08:11:06;100450.50;;;4.30;100.00
6565;BME280;3316;44.118;27.258;2023-02-04T08:13:32;100443.66;;;4.40;100.00
6565;BME280;3316;44.118;27.258;2023-02-04T08:15:57;100436.59;;;4.28;100.00
6565;BME280;3316;44.118;27.258;2023-02-04T08:18:22;100436.59;;;4.28;100.00
6565;BME280;3316;44.118;27.258;2023-02-04T08:20:49;100445.38;;;4.36;100.00
6565;BME280;3316;44.118;27.258;2023-02-04T08:23:15;100439.28;;;4.37;100.00
6565;BME280;3316;44.118;27.258;2023-02-04T08:25:40;100440.09;;;4.32;100.00
6565;BME280;3316;44.118;27.258;2023-02-04T08:28:05;100424.31;;;4.17;100.00
6565;BME280;3316;44.118;27.258;2023-02-04T08:30:31;100440.94;;;4.29;100.00
6565;BME280;3316;44.118;27.258;2023-02-04T08:32:56;100406.09;;;4.21;100.00
6565;BME280;3316;44.118;27.258;2023-02-04T08:35:22;100438.44;;;4.38;100.00
6565;BME280;3316;44.118;27.258;2023-02-04T08:37:47;100433.31;;;4.44;100.00
6565;BME280;3316;44.118;27.258;2023-02-04T08:40:13;100434.16;;;4.42;100.00
6565;BME280;3316;44.118;27.258;2023-02-04T08:42:38;100448.94;;;4.46;100.00
6565;BME280;3316;44.118;27.258;2023-02-04T08:45:04;100454.09;;;4.40;100.00
6565;BME280;3316;44.118;27.258;2023-02-04T08:47:29;100423.50;;;4.24;100.00
6565;BME280;3316;44.118;27.258;2023-02-04T08:49:54;100383.31;;;4.01;100.00
6565;BME280;3316;44.118;27.258;2023-02-04T08:52:20;100440.09;;;4.33;100.00
6565;BME280;3316;44.118;27.258;2023-02-04T08:54:45;100444.47;;;4.34;100.00
6565;BME280;3316;44.118;27.258;2023-02-04T08:57:11;100450.59;;;4.36;100.00
6565;BME280;3316;44.118;27.258;2023-02-04T08:59:36;100434.63;;;4.09;100.00
6565;BME280;3316;44.118;27.258;2023-02-04T09:02:02;100451.25;;;4.20;100.00
6565;BME280;3316;44.118;27.258;2023-02-04T09:04:27;100448.63;;;4.19;100.00
6565;BME280;3316;44.118;27.258;2023-02-04T09:06:54;100456.59;;;4.31;100.00
6565;BME280;3316;44.118;27.258;2023-02-04T09:09:20;100451.41;;;4.34;100.00
6565;BME280;3316;44.118;27.258;2023-02-04T09:11:46;100444.44;;;4.31;100.00
6565;BME280;3316;44.118;27.258;2023-02-04T09:14:12;100461.88;;;4.38;100.00
6565;BME280;3316;44.118;27.258;2023-02-04T09:16:37;100456.91;;;4.58;100.00
6565;BME280;3316;44.118;27.258;2023-02-04T09:19:03;100451.91;;;4.78;100.00
6565;BME280;3316;44.118;27.258;2023-02-04T09:21:29;100460.50;;;4.69;100.00
6565;BME280;3316;44.118;27.258;2023-02-04T09:23:54;100463.44;;;5.04;100.00
6565;BME280;3316;44.118;27.258;2023-02-04T09:26:20;100439.97;;;5.04;100.00
6565;BME280;3316;44.118;27.258;2023-02-04T09:28:45;100468.88;;;5.26;100.00
6565;BME280;3316;44.118;27.258;2023-02-04T09:31:12;100465.28;;;5.14;100.00
6565;BME280;3316;44.118;27.258;2023-02-04T09:33:38;100434.81;;;5.08;100.00
6565;BME280;3316;44.118;27.258;2023-02-04T09:36:03;100471.47;;;5.28;100.00
6565;BME280;3316;44.118;27.258;2023-02-04T09:38:29;100464.53;;;5.30;100.00
6565;BME280;3316;44.118;27.258;2023-02-04T09:40:58;100457.50;;;5.21;100.00
6565;BME280;3316;44.118;27.258;2023-02-04T09:43:27;100466.22;;;5.20;100.00
6565;BME280;3316;44.118;27.258;2023-02-04T09:45:54;100464.38;;;5.13;100.00
6565;BME280;3316;44.118;27.258;2023-02-04T09:48:21;100458.28;;;5.11;100.00
6565;BME280;3316;44.118;27.258;2023-02-04T09:50:49;100451.22;;;4.97;100.00
6565;BME280;3316;44.118;27.258;2023-02-04T09:53:19;100461.59;;;4.92;100.00
6565;BME280;3316;44.118;27.258;2023-02-04T09:55:46;100464.13;;;4.88;100.00
6565;BME280;3316;44.118;27.258;2023-02-04T09:58:12;100465.09;;;4.96;100.00
6565;BME280;3316;44.118;27.258;2023-02-04T10:00:40;100456.28;;;4.82;100.00
6565;BME280;3316;44.118;27.258;2023-02-04T10:03:13;100459.75;;;4.82;100.00
6565;BME280;3316;44.118;27.258;2023-02-04T10:05:38;100459.63;;;4.70;100.00
6565;BME280;3316;44.118;27.258;2023-02-04T10:08:04;100449.09;;;4.60;100.00
6565;BME280;3316;44.118;27.258;2023-02-04T10:10:30;100449.00;;;4.50;100.00
6565;BME280;3316;44.118;27.258;2023-02-04T10:13:00;100451.66;;;4.57;100.00
6565;BME280;3316;44.118;27.258;2023-02-04T10:15:27;100461.38;;;4.70;100.00
6565;BME280;3316;44.118;27.258;2023-02-04T10:17:57;100459.53;;;4.60;100.00
6565;BME280;3316;44.118;27.258;2023-02-04T10:20:25;100461.22;;;4.56;100.00
6565;BME280;3316;44.118;27.258;2023-02-04T10:22:52;100446.63;;;4.72;100.00
6565;BME280;3316;44.118;27.258;2023-02-04T10:25:21;100450.09;;;4.72;100.00
6565;BME280;3316;44.118;27.258;2023-02-04T10:27:54;100449.25;;;4.75;100.00
6565;BME280;3316;44.118;27.258;2023-02-04T10:30:22;100451.09;;;4.85;100.00
6565;BME280;3316;44.118;27.258;2023-02-04T10:32:48;100455.47;;;4.87;100.00
6565;BME280;3316;44.118;27.258;2023-02-04T10:35:15;100468.44;;;4.80;100.00
6565;BME280;3316;44.118;27.258;2023-02-04T10:37:41;100468.25;;;4.65;100.00
6565;BME280;3316;44.118;27.258;2023-02-04T10:40:34;100473.47;;;4.65;100.00
6565;BME280;3316;44.118;27.258;2023-02-04T10:43:13;100474.34;;;4.67;100.00
6565;BME280;3316;44.118;27.258;2023-02-04T10:45:43;100471.66;;;4.58;100.00
6565;BME280;3316;44.118;27.258;2023-02-04T10:48:15;100468.06;;;4.46;100.00
6565;BME280;3316;44.118;27.258;2023-02-04T10:50:41;100438.38;;;4.32;100.00
6565;BME280;3316;44.118;27.258;2023-02-04T10:53:09;100489.06;;;4.62;100.00
6565;BME280;3316;44.118;27.258;2023-02-04T10:55:54;100441.06;;;4.41;100.00
6565;BME280;3316;44.118;27.258;2023-02-04T10:58:26;100474.19;;;4.50;100.00
6565;BME280;3316;44.118;27.258;2023-02-04T11:00:53;100478.56;;;4.54;100.00
6565;BME280;3316;44.118;27.258;2023-02-04T11:03:22;100419.91;;;4.11;100.00
6565;BME280;3316;44.118;27.258;2023-02-04T11:05:48;100442.53;;;4.17;100.00
6565;BME280;3316;44.118;27.258;2023-02-04T11:08:30;100483.63;;;4.40;100.00
6565;BME280;3316;44.118;27.258;2023-02-04T11:11:17;100480.03;;;4.31;100.00
6565;BME280;3316;44.118;27.258;2023-02-04T11:18:50;100502.94;;;3.93;100.00
6565;BME280;3316;44.118;27.258;2023-02-04T11:24:01;100491.75;;;4.00;100.00
6565;BME280;3316;44.118;27.258;2023-02-04T11:26:35;100503.88;;;3.98;100.00
6565;BME280;3316;44.118;27.258;2023-02-04T11:39:47;100502.94;;;3.92;100.00
6565;BME280;3316;44.118;27.258;2023-02-04T11:42:31;100489.06;;;3.94;100.00
6565;BME280;3316;44.118;27.258;2023-02-04T11:45:20;100503.97;;;4.04;100.00
6565;BME280;3316;44.118;27.258;2023-02-04T11:47:49;100505.75;;;4.08;100.00
6565;BME280;3316;44.118;27.258;2023-02-04T11:50:24;100484.09;;;4.09;100.00
6565;BME280;3316;44.118;27.258;2023-02-04T11:52:53;100495.44;;;4.16;100.00
6565;BME280;3316;44.118;27.258;2023-02-04T11:55:18;100490.94;;;4.04;100.00
6565;BME280;3316;44.118;27.258;2023-02-04T11:57:44;100483.19;;;4.07;100.00
6565;BME280;3316;44.118;27.258;2023-02-04T12:00:22;100468.59;;;4.20;100.00
6565;BME280;3316;44.118;27.258;2023-02-04T12:02:57;100495.63;;;4.29;100.00
6565;BME280;3316;44.118;27.258;2023-02-04T12:05:38;100490.56;;;4.41;100.00
6565;BME280;3316;44.118;27.258;2023-02-04T12:08:33;100506.72;;;4.15;100.00
6565;BME280;3316;44.118;27.258;2023-02-04T12:11:03;100429.25;;;3.97;100.00
6565;BME280;3316;44.118;27.258;2023-02-04T12:13:30;100485.66;;;3.98;100.00
6565;BME280;3316;44.118;27.258;2023-02-04T12:16:03;100499.56;;;4.00;100.00
6565;BME280;3316;44.118;27.258;2023-02-04T12:18:30;100499.56;;;3.99;100.00
6565;BME280;3316;44.118;27.258;2023-02-04T12:20:56;100496.06;;;3.98;100.00
6565;BME280;3316;44.118;27.258;2023-02-04T12:23:23;100489.88;;;3.89;100.00
6565;BME280;3316;44.118;27.258;2023-02-04T12:25:49;100513.38;;;3.93;100.00
6565;BME280;3316;44.118;27.258;2023-02-04T12:28:15;100515.66;;;3.74;100.00
6565;BME280;3316;44.118;27.258;2023-02-04T12:30:41;100498.19;;;3.65;100.00
6565;BME280;3316;44.118;27.258;2023-02-04T12:33:06;100489.56;;;3.68;100.00
6565;BME280;3316;44.118;27.258;2023-02-04T12:35:33;100499.97;;;3.68;100.00
6565;BME280;3316;44.118;27.258;2023-02-04T12:37:59;100494.88;;;3.75;100.00
6565;BME280;3316;44.118;27.258;2023-02-04T12:40:24;100511.66;;;3.97;100.00
6565;BME280;3316;44.118;27.258;2023-02-04T12:42:49;100515.16;;;3.97;100.00
6565;BME280;3316;44.118;27.258;2023-02-04T12:45:16;100513.34;;;3.92;100.00
6565;BME280;3316;44.118;27.258;2023-02-04T12:47:42;100523.88;;;4.01;100.00
6565;BME280;3316;44.118;27.258;2023-02-04T12:50:11;100510.66;;;3.87;100.00
6565;BME280;3316;44.118;27.258;2023-02-04T12:52:37;100524.75;;;4.01;100.00
6565;BME280;3316;44.118;27.258;2023-02-04T12:55:04;100523.00;;;4.00;100.00
6565;BME280;3316;44.118;27.258;2023-02-04T12:57:31;100531.06;;;4.17;100.00
6565;BME280;3316;44.118;27.258;2023-02-04T12:59:57;100533.59;;;4.12;100.00
6565;BME280;3316;44.118;27.258;2023-02-04T13:02:24;100523.97;;;4.07;100.00
6565;BME280;3316;44.118;27.258;2023-02-04T13:04:50;100542.78;;;3.88;100.00
6565;BME280;3316;44.118;27.258;2023-02-04T13:07:16;100526.78;;;3.62;100.00
6565;BME280;3316;44.118;27.258;2023-02-04T13:09:41;100526.75;;;3.60;100.00
6565;BME280;3316;44.118;27.258;2023-02-04T13:12:07;100541.09;;;3.91;100.00
6565;BME280;3316;44.118;27.258;2023-02-04T13:14:33;100549.94;;;4.02;100.00
6565;BME280;3316;44.118;27.258;2023-02-04T13:16:58;100544.72;;;4.04;100.00
6565;BME280;3316;44.118;27.258;2023-02-04T13:19:24;100501.97;;;3.85;100.00
6565;BME280;3316;44.118;27.258;2023-02-04T13:21:49;100503.66;;;3.83;100.00